UAL212 PHKO-KDEN
Flight info
| Callsign | UAL212 |
|---|---|
| Flight time | 5h 49m |
| Altitude | 39000 |
| Route | KOA V5 MYNAH V11 UPP CLUTS R465 CUNDU/N0482F410 R465 CINNY JAGWA OAL Q136 KATTS Q164 KITTN LUDOH BUMMP SSKII4 |
| Aircraft | A359/H-SDE2E3GHIJ3J4J5LM1ORWXY/LB1D1 |
Departure
| Time | 2026-04-23 14:13 |
|---|---|
| Airport | Ellison Onizuka Kona International Airport at Keāhole (PHKO) |
Arrival
| Time | 2026-04-23 20:02 |
|---|---|
| Airport | Denver International Airport (KDEN) |
| Time | Latitude | Longitude | Altitude | Speed | Heading |
|---|---|---|---|---|---|
| 2026-04-23 13:48 | 19.73799 | -156.04152 | 66 ft | 0 kts | 177° |
| 2026-04-23 14:01 | 19.73800 | -156.04152 | 88 ft | 1 kts | 176° |
| 2026-04-23 14:01 | 19.73812 | -156.04156 | 88 ft | 2 kts | 149° |
| 2026-04-23 14:02 | 19.73824 | -156.04166 | 88 ft | 2 kts | 141° |
| 2026-04-23 14:02 | 19.73834 | -156.04176 | 88 ft | 2 kts | 126° |
| 2026-04-23 14:02 | 19.73842 | -156.04190 | 88 ft | 2 kts | 112° |
| 2026-04-23 14:02 | 19.73846 | -156.04205 | 88 ft | 2 kts | 98° |
| 2026-04-23 14:03 | 19.73847 | -156.04221 | 88 ft | 2 kts | 92° |
| 2026-04-23 14:03 | 19.73848 | -156.04237 | 88 ft | 2 kts | 95° |
| 2026-04-23 14:03 | 19.73849 | -156.04253 | 88 ft | 2 kts | 96° |
| 2026-04-23 14:03 | 19.73852 | -156.04268 | 88 ft | 2 kts | 112° |
| 2026-04-23 14:04 | 19.73859 | -156.04283 | 88 ft | 2 kts | 127° |
| 2026-04-23 14:04 | 19.73869 | -156.04295 | 88 ft | 2 kts | 141° |
| 2026-04-23 14:04 | 19.73882 | -156.04303 | 88 ft | 2 kts | 155° |
| 2026-04-23 14:04 | 19.73896 | -156.04309 | 88 ft | 2 kts | 169° |
| 2026-04-23 14:05 | 19.73910 | -156.04311 | 88 ft | 1 kts | 182° |
| 2026-04-23 14:05 | 19.73916 | -156.04311 | 88 ft | 0 kts | 184° |
| 2026-04-23 14:08 | 19.73915 | -156.04311 | 88 ft | 0 kts | 184° |
| 2026-04-23 14:08 | 19.73906 | -156.04311 | 88 ft | 2 kts | 182° |
| 2026-04-23 14:08 | 19.73885 | -156.04312 | 88 ft | 3 kts | 182° |
| 2026-04-23 14:08 | 19.73852 | -156.04314 | 88 ft | 5 kts | 182° |
| 2026-04-23 14:09 | 19.73807 | -156.04315 | 88 ft | 7 kts | 182° |
| 2026-04-23 14:09 | 19.73752 | -156.04320 | 88 ft | 8 kts | 185° |
| 2026-04-23 14:09 | 19.73688 | -156.04324 | 88 ft | 10 kts | 185° |
| 2026-04-23 14:09 | 19.73602 | -156.04334 | 87 ft | 15 kts | 185° |
| 2026-04-23 14:10 | 19.73476 | -156.04344 | 87 ft | 20 kts | 185° |
| 2026-04-23 14:10 | 19.73311 | -156.04359 | 87 ft | 26 kts | 185° |
| 2026-04-23 14:10 | 19.73109 | -156.04376 | 87 ft | 31 kts | 185° |
| 2026-04-23 14:10 | 19.72877 | -156.04396 | 87 ft | 31 kts | 185° |
| 2026-04-23 14:11 | 19.72661 | -156.04414 | 87 ft | 31 kts | 185° |
| 2026-04-23 14:11 | 19.72441 | -156.04433 | 86 ft | 32 kts | 185° |
| 2026-04-23 14:11 | 19.72326 | -156.04540 | 86 ft | 18 kts | 282° |
| 2026-04-23 14:11 | 19.72367 | -156.04599 | 86 ft | 2 kts | 284° |
| 2026-04-23 14:12 | 19.72370 | -156.04622 | 86 ft | 4 kts | 278° |
| 2026-04-23 14:12 | 19.72378 | -156.04668 | 86 ft | 7 kts | 293° |
| 2026-04-23 14:12 | 19.72425 | -156.04694 | 86 ft | 9 kts | 358° |
| 2026-04-23 14:12 | 19.72678 | -156.04675 | 86 ft | 71 kts | 5° |
| 2026-04-23 14:13 | 19.73396 | -156.04613 | 88 ft | 134 kts | 5° |
| 2026-04-23 14:13 | 19.74489 | -156.04509 | 309 ft | 165 kts | 6° |
| 2026-04-23 14:13 | 19.75609 | -156.04379 | 952 ft | 163 kts | 6° |
| 2026-04-23 14:13 | 19.76708 | -156.04205 | 1665 ft | 160 kts | 17° |
| 2026-04-23 14:14 | 19.77547 | -156.03525 | 2165 ft | 159 kts | 58° |
| 2026-04-23 14:14 | 19.78314 | -156.02696 | 2514 ft | 163 kts | 22° |
| 2026-04-23 14:14 | 19.79454 | -156.02353 | 2792 ft | 177 kts | 11° |
| 2026-04-23 14:14 | 19.80709 | -156.02130 | 3140 ft | 190 kts | 10° |
| 2026-04-23 14:15 | 19.82073 | -156.01851 | 3468 ft | 206 kts | 13° |
| 2026-04-23 14:15 | 19.83524 | -156.01471 | 3804 ft | 223 kts | 16° |
| 2026-04-23 14:15 | 19.85081 | -156.00995 | 4227 ft | 239 kts | 18° |
| 2026-04-23 14:15 | 19.86724 | -156.00449 | 4670 ft | 256 kts | 19° |
| 2026-04-23 14:16 | 19.88460 | -155.99857 | 5138 ft | 270 kts | 20° |
| 2026-04-23 14:16 | 19.90260 | -155.99220 | 5790 ft | 275 kts | 20° |
| 2026-04-23 14:16 | 19.92088 | -155.98561 | 6507 ft | 278 kts | 19° |
| 2026-04-23 14:16 | 19.93908 | -155.97910 | 7202 ft | 280 kts | 19° |
| 2026-04-23 14:17 | 19.95758 | -155.97246 | 7867 ft | 284 kts | 19° |
| 2026-04-23 14:17 | 19.97664 | -155.96574 | 8545 ft | 287 kts | 19° |
| 2026-04-23 14:17 | 19.99546 | -155.95911 | 9172 ft | 290 kts | 20° |
| 2026-04-23 14:17 | 20.01475 | -155.95200 | 9781 ft | 293 kts | 19° |
| 2026-04-23 14:18 | 20.03389 | -155.94459 | 10352 ft | 297 kts | 22° |
| 2026-04-23 14:18 | 20.05320 | -155.93517 | 10660 ft | 311 kts | 27° |
| 2026-04-23 14:18 | 20.07247 | -155.92368 | 10944 ft | 325 kts | 30° |
| 2026-04-23 14:18 | 20.09242 | -155.91119 | 11219 ft | 338 kts | 30° |
| 2026-04-23 14:19 | 20.11291 | -155.89833 | 11479 ft | 351 kts | 30° |
| 2026-04-23 14:19 | 20.13442 | -155.88489 | 11737 ft | 364 kts | 30° |
| 2026-04-23 14:19 | 20.15662 | -155.87105 | 12158 ft | 371 kts | 30° |
| 2026-04-23 14:19 | 20.17907 | -155.85713 | 12687 ft | 373 kts | 28° |
| 2026-04-23 14:20 | 20.20229 | -155.84427 | 13213 ft | 377 kts | 25° |
| 2026-04-23 14:20 | 20.22616 | -155.83299 | 13742 ft | 380 kts | 21° |
| 2026-04-23 14:20 | 20.25072 | -155.82263 | 14262 ft | 383 kts | 21° |
| 2026-04-23 14:20 | 20.27567 | -155.81229 | 14759 ft | 385 kts | 20° |
| 2026-04-23 14:21 | 20.30099 | -155.80182 | 15247 ft | 389 kts | 20° |
| 2026-04-23 14:21 | 20.32629 | -155.79134 | 15754 ft | 392 kts | 20° |
| 2026-04-23 14:21 | 20.35161 | -155.78084 | 16269 ft | 394 kts | 20° |
| 2026-04-23 14:21 | 20.37724 | -155.77019 | 16784 ft | 397 kts | 20° |
| 2026-04-23 14:22 | 20.40308 | -155.75943 | 17296 ft | 399 kts | 20° |
| 2026-04-23 14:22 | 20.42903 | -155.74863 | 17785 ft | 402 kts | 20° |
| 2026-04-23 14:22 | 20.45546 | -155.73763 | 18277 ft | 405 kts | 20° |
| 2026-04-23 14:22 | 20.48153 | -155.72676 | 18773 ft | 408 kts | 20° |
| 2026-04-23 14:23 | 20.50812 | -155.71568 | 19257 ft | 410 kts | 20° |
| 2026-04-23 14:23 | 20.53491 | -155.70451 | 19693 ft | 413 kts | 20° |
| 2026-04-23 14:23 | 20.56178 | -155.69330 | 20121 ft | 417 kts | 20° |
| 2026-04-23 14:23 | 20.58906 | -155.68193 | 20553 ft | 420 kts | 20° |
| 2026-04-23 14:24 | 20.61648 | -155.67049 | 20974 ft | 424 kts | 20° |
| 2026-04-23 14:24 | 20.64413 | -155.65894 | 21386 ft | 427 kts | 20° |
| 2026-04-23 14:24 | 20.67159 | -155.64746 | 21788 ft | 430 kts | 20° |
| 2026-04-23 14:24 | 20.69961 | -155.63574 | 22187 ft | 433 kts | 20° |
| 2026-04-23 14:25 | 20.72798 | -155.62387 | 22579 ft | 435 kts | 20° |
| 2026-04-23 14:25 | 20.75644 | -155.61197 | 22945 ft | 439 kts | 19° |
| 2026-04-23 14:25 | 20.78497 | -155.60001 | 23311 ft | 442 kts | 19° |
| 2026-04-23 14:25 | 20.81346 | -155.58807 | 23672 ft | 445 kts | 19° |
| 2026-04-23 14:26 | 20.84249 | -155.57591 | 24050 ft | 448 kts | 19° |
| 2026-04-23 14:26 | 20.87137 | -155.56380 | 24422 ft | 450 kts | 19° |
| 2026-04-23 14:26 | 20.90078 | -155.55145 | 24792 ft | 453 kts | 19° |
| 2026-04-23 14:26 | 20.93041 | -155.53903 | 25152 ft | 456 kts | 19° |
| 2026-04-23 14:27 | 20.95973 | -155.52672 | 25500 ft | 459 kts | 19° |
| 2026-04-23 14:27 | 20.98995 | -155.51402 | 25849 ft | 461 kts | 19° |
| 2026-04-23 14:27 | 21.01959 | -155.50157 | 26181 ft | 464 kts | 19° |
| 2026-04-23 14:27 | 21.04983 | -155.48886 | 26512 ft | 467 kts | 19° |
| 2026-04-23 14:28 | 21.08021 | -155.47609 | 26831 ft | 470 kts | 19° |
| 2026-04-23 14:28 | 21.10883 | -155.46405 | 27125 ft | 472 kts | 19° |
| 2026-04-23 14:28 | 21.13956 | -155.45117 | 27471 ft | 474 kts | 19° |
| 2026-04-23 14:28 | 21.17058 | -155.43817 | 27790 ft | 475 kts | 19° |
| 2026-04-23 14:29 | 21.20142 | -155.42522 | 28076 ft | 478 kts | 19° |
| 2026-04-23 14:29 | 21.23222 | -155.41228 | 28359 ft | 481 kts | 19° |
| 2026-04-23 14:29 | 21.26350 | -155.39911 | 28667 ft | 484 kts | 19° |
| 2026-04-23 14:29 | 21.29499 | -155.38583 | 28993 ft | 486 kts | 19° |
| 2026-04-23 14:30 | 21.32672 | -155.37244 | 29290 ft | 488 kts | 19° |
| 2026-04-23 14:30 | 21.35822 | -155.35915 | 29563 ft | 491 kts | 19° |
| 2026-04-23 14:30 | 21.39007 | -155.34569 | 29845 ft | 493 kts | 19° |
| 2026-04-23 14:30 | 21.42223 | -155.33195 | 30131 ft | 495 kts | 19° |
| 2026-04-23 14:31 | 21.45451 | -155.31813 | 30409 ft | 497 kts | 19° |
| 2026-04-23 14:31 | 21.48648 | -155.30447 | 30660 ft | 499 kts | 19° |
| 2026-04-23 14:31 | 21.51861 | -155.29080 | 30921 ft | 500 kts | 19° |
| 2026-04-23 14:31 | 21.55117 | -155.27695 | 31257 ft | 499 kts | 19° |
| 2026-04-23 14:32 | 21.58318 | -155.26335 | 31657 ft | 497 kts | 19° |
| 2026-04-23 14:32 | 21.61548 | -155.24963 | 32048 ft | 495 kts | 18° |
| 2026-04-23 14:32 | 21.64751 | -155.23604 | 32412 ft | 493 kts | 18° |
| 2026-04-23 14:32 | 21.67918 | -155.22258 | 32759 ft | 492 kts | 18° |
| 2026-04-23 14:33 | 21.71097 | -155.20909 | 33131 ft | 490 kts | 18° |
| 2026-04-23 14:33 | 21.74278 | -155.19557 | 33502 ft | 488 kts | 18° |
| 2026-04-23 14:33 | 21.77416 | -155.18225 | 33862 ft | 486 kts | 18° |
| 2026-04-23 14:33 | 21.80588 | -155.16876 | 34239 ft | 484 kts | 18° |
| 2026-04-23 14:34 | 21.83704 | -155.15550 | 34604 ft | 482 kts | 18° |
| 2026-04-23 14:34 | 21.86804 | -155.14232 | 34941 ft | 480 kts | 18° |
| 2026-04-23 14:34 | 21.89895 | -155.12915 | 35264 ft | 479 kts | 18° |
| 2026-04-23 14:34 | 21.93015 | -155.11587 | 35588 ft | 477 kts | 17° |
| 2026-04-23 14:35 | 21.96100 | -155.10272 | 35874 ft | 476 kts | 17° |
| 2026-04-23 14:35 | 21.99160 | -155.08969 | 36134 ft | 476 kts | 17° |
| 2026-04-23 14:35 | 22.02264 | -155.07645 | 36393 ft | 475 kts | 17° |
| 2026-04-23 14:35 | 22.05305 | -155.06348 | 36648 ft | 475 kts | 17° |
| 2026-04-23 14:36 | 22.08398 | -155.05026 | 36881 ft | 474 kts | 17° |
| 2026-04-23 14:36 | 22.11475 | -155.03713 | 37098 ft | 474 kts | 17° |
| 2026-04-23 14:36 | 22.14529 | -155.02412 | 37318 ft | 473 kts | 17° |
| 2026-04-23 14:36 | 22.17613 | -155.01099 | 37516 ft | 473 kts | 16° |
| 2026-04-23 14:37 | 22.20718 | -154.99774 | 37672 ft | 474 kts | 16° |
| 2026-04-23 14:37 | 22.23795 | -154.98462 | 37814 ft | 475 kts | 16° |
| 2026-04-23 14:37 | 22.26857 | -154.97154 | 37960 ft | 476 kts | 16° |
| 2026-04-23 14:37 | 22.29956 | -154.95828 | 38117 ft | 476 kts | 16° |
| 2026-04-23 14:38 | 22.33001 | -154.94524 | 38254 ft | 476 kts | 16° |
| 2026-04-23 14:38 | 22.36094 | -154.93198 | 38372 ft | 477 kts | 16° |
| 2026-04-23 14:38 | 22.39182 | -154.91873 | 38484 ft | 477 kts | 16° |
| 2026-04-23 14:38 | 22.42267 | -154.90550 | 38596 ft | 478 kts | 16° |
| 2026-04-23 14:39 | 22.45355 | -154.89224 | 38706 ft | 478 kts | 16° |
| 2026-04-23 14:39 | 22.48458 | -154.87891 | 38821 ft | 478 kts | 16° |
| 2026-04-23 14:39 | 22.54628 | -154.85237 | 39001 ft | 479 kts | 16° |
| 2026-04-23 14:40 | 22.60849 | -154.82561 | 39105 ft | 479 kts | 16° |
| 2026-04-23 14:40 | 22.67037 | -154.79894 | 39128 ft | 479 kts | 16° |
| 2026-04-23 14:41 | 22.73248 | -154.77214 | 39110 ft | 478 kts | 16° |
| 2026-04-23 14:41 | 22.79402 | -154.74554 | 39105 ft | 478 kts | 16° |
| 2026-04-23 14:42 | 22.85572 | -154.71886 | 39102 ft | 478 kts | 16° |
| 2026-04-23 14:42 | 22.91739 | -154.69141 | 39096 ft | 481 kts | 19° |
| 2026-04-23 14:43 | 22.97544 | -154.65454 | 39103 ft | 490 kts | 30° |
| 2026-04-23 14:43 | 23.02739 | -154.60548 | 39102 ft | 499 kts | 41° |
| 2026-04-23 14:44 | 23.07050 | -154.54614 | 39108 ft | 507 kts | 50° |
| 2026-04-23 14:44 | 23.10943 | -154.48193 | 39105 ft | 508 kts | 51° |
| 2026-04-23 14:45 | 23.14802 | -154.41827 | 39106 ft | 507 kts | 51° |
| 2026-04-23 14:45 | 23.18693 | -154.35423 | 39105 ft | 508 kts | 51° |
| 2026-04-23 14:46 | 23.22562 | -154.29024 | 39104 ft | 508 kts | 51° |
| 2026-04-23 14:46 | 23.26416 | -154.22638 | 39105 ft | 508 kts | 51° |
| 2026-04-23 14:47 | 23.30296 | -154.16217 | 39107 ft | 508 kts | 51° |
| 2026-04-23 14:47 | 23.34185 | -154.09787 | 39104 ft | 509 kts | 51° |
| 2026-04-23 14:48 | 23.38060 | -154.03372 | 39106 ft | 509 kts | 51° |
| 2026-04-23 14:48 | 23.41934 | -153.96950 | 39106 ft | 510 kts | 51° |
| 2026-04-23 14:49 | 23.45810 | -153.90514 | 39111 ft | 510 kts | 51° |
| 2026-04-23 14:49 | 23.49683 | -153.84076 | 39114 ft | 510 kts | 51° |
| 2026-04-23 14:50 | 23.53576 | -153.77597 | 39107 ft | 510 kts | 51° |
| 2026-04-23 14:50 | 23.57445 | -153.71149 | 39106 ft | 510 kts | 51° |
| 2026-04-23 14:51 | 23.61335 | -153.64656 | 39105 ft | 511 kts | 51° |
| 2026-04-23 14:51 | 23.65209 | -153.58182 | 39105 ft | 511 kts | 51° |
| 2026-04-23 14:52 | 23.69066 | -153.51726 | 39106 ft | 511 kts | 51° |
| 2026-04-23 14:52 | 23.72933 | -153.45241 | 39107 ft | 511 kts | 51° |
| 2026-04-23 14:53 | 23.76785 | -153.38773 | 39107 ft | 511 kts | 51° |
| 2026-04-23 14:53 | 23.80654 | -153.32295 | 39105 ft | 511 kts | 51° |
| 2026-04-23 14:54 | 23.84543 | -153.25783 | 39107 ft | 511 kts | 51° |
| 2026-04-23 14:54 | 23.88409 | -153.19304 | 39108 ft | 511 kts | 51° |
| 2026-04-23 14:55 | 23.92302 | -153.12779 | 39108 ft | 511 kts | 51° |
| 2026-04-23 14:55 | 23.96167 | -153.06293 | 39109 ft | 511 kts | 51° |
| 2026-04-23 14:56 | 24.00039 | -152.99788 | 39110 ft | 511 kts | 51° |
| 2026-04-23 14:56 | 24.03899 | -152.93295 | 39110 ft | 511 kts | 51° |
| 2026-04-23 14:57 | 24.07757 | -152.86797 | 39117 ft | 511 kts | 51° |
| 2026-04-23 14:57 | 24.11634 | -152.80267 | 39124 ft | 512 kts | 50° |
| 2026-04-23 14:58 | 24.15519 | -152.73758 | 39120 ft | 512 kts | 50° |
| 2026-04-23 14:58 | 24.19386 | -152.67255 | 39122 ft | 513 kts | 50° |
| 2026-04-23 14:59 | 24.23270 | -152.60690 | 39122 ft | 513 kts | 50° |
| 2026-04-23 14:59 | 24.27117 | -152.54170 | 39123 ft | 513 kts | 50° |
| 2026-04-23 15:00 | 24.30982 | -152.47612 | 39123 ft | 513 kts | 50° |
| 2026-04-23 15:00 | 24.34843 | -152.41048 | 39123 ft | 513 kts | 50° |
| 2026-04-23 15:01 | 24.38721 | -152.34448 | 39121 ft | 513 kts | 51° |
| 2026-04-23 15:01 | 24.42562 | -152.27867 | 39121 ft | 513 kts | 51° |
| 2026-04-23 15:02 | 24.46425 | -152.21246 | 39121 ft | 513 kts | 51° |
| 2026-04-23 15:02 | 24.50263 | -152.14677 | 39121 ft | 513 kts | 51° |
| 2026-04-23 15:03 | 24.54101 | -152.08105 | 39122 ft | 513 kts | 51° |
| 2026-04-23 15:03 | 24.57958 | -152.01495 | 39125 ft | 513 kts | 51° |
| 2026-04-23 15:04 | 24.61790 | -151.94919 | 39127 ft | 513 kts | 51° |
| 2026-04-23 15:04 | 24.65620 | -151.88341 | 39129 ft | 513 kts | 51° |
| 2026-04-23 15:05 | 24.69469 | -151.81720 | 39137 ft | 513 kts | 51° |
| 2026-04-23 15:05 | 24.73286 | -151.75143 | 39141 ft | 513 kts | 51° |
| 2026-04-23 15:06 | 24.77122 | -151.68523 | 39134 ft | 514 kts | 51° |
| 2026-04-23 15:06 | 24.80957 | -151.61902 | 39131 ft | 514 kts | 51° |
| 2026-04-23 15:07 | 24.84789 | -151.55275 | 39130 ft | 514 kts | 51° |
| 2026-04-23 15:07 | 24.88612 | -151.48651 | 39131 ft | 514 kts | 51° |
| 2026-04-23 15:08 | 24.92450 | -151.41991 | 39132 ft | 514 kts | 50° |
| 2026-04-23 15:09 | 24.98188 | -151.32008 | 39129 ft | 515 kts | 51° |
| 2026-04-23 15:09 | 25.01982 | -151.25368 | 39131 ft | 515 kts | 51° |
| 2026-04-23 15:10 | 25.05169 | -151.19794 | 39132 ft | 515 kts | 51° |
| 2026-04-23 15:10 | 25.09608 | -151.12035 | 39132 ft | 515 kts | 51° |
| 2026-04-23 15:11 | 25.13456 | -151.05345 | 39133 ft | 515 kts | 51° |
| 2026-04-23 15:11 | 25.17280 | -150.98692 | 39133 ft | 516 kts | 51° |
| 2026-04-23 15:12 | 25.21102 | -150.92011 | 39133 ft | 516 kts | 51° |
| 2026-04-23 15:12 | 25.24923 | -150.85306 | 39133 ft | 515 kts | 51° |
| 2026-04-23 15:13 | 25.28738 | -150.78598 | 39134 ft | 516 kts | 51° |
| 2026-04-23 15:13 | 25.32551 | -150.71881 | 39133 ft | 517 kts | 51° |
| 2026-04-23 15:14 | 25.36354 | -150.65172 | 39134 ft | 517 kts | 51° |
| 2026-04-23 15:14 | 25.40161 | -150.58449 | 39134 ft | 518 kts | 51° |
| 2026-04-23 15:15 | 25.43977 | -150.51700 | 39135 ft | 518 kts | 51° |
| 2026-04-23 15:15 | 25.47800 | -150.44930 | 39135 ft | 518 kts | 51° |
| 2026-04-23 15:16 | 25.51587 | -150.38214 | 39135 ft | 518 kts | 51° |
| 2026-04-23 15:16 | 25.55430 | -150.31381 | 39136 ft | 520 kts | 52° |
| 2026-04-23 15:17 | 25.59227 | -150.24594 | 39138 ft | 522 kts | 52° |
| 2026-04-23 15:17 | 25.63073 | -150.17720 | 39141 ft | 523 kts | 52° |
| 2026-04-23 15:18 | 25.66886 | -150.10910 | 39142 ft | 523 kts | 52° |
| 2026-04-23 15:18 | 25.70706 | -150.04085 | 39142 ft | 523 kts | 52° |
| 2026-04-23 15:19 | 25.74533 | -149.97237 | 39143 ft | 524 kts | 52° |
| 2026-04-23 15:19 | 25.78371 | -149.90359 | 39143 ft | 524 kts | 52° |
| 2026-04-23 15:20 | 25.82201 | -149.83485 | 39142 ft | 524 kts | 52° |
| 2026-04-23 15:20 | 25.86020 | -149.76623 | 39141 ft | 524 kts | 52° |
| 2026-04-23 15:21 | 25.89836 | -149.69754 | 39141 ft | 524 kts | 52° |
| 2026-04-23 15:21 | 25.93652 | -149.62877 | 39141 ft | 524 kts | 52° |
| 2026-04-23 15:22 | 25.97454 | -149.56014 | 39142 ft | 524 kts | 52° |
| 2026-04-23 15:22 | 26.01252 | -149.49149 | 39143 ft | 524 kts | 52° |
| 2026-04-23 15:23 | 26.05056 | -149.42261 | 39146 ft | 524 kts | 52° |
| 2026-04-23 15:23 | 26.08855 | -149.35371 | 39150 ft | 524 kts | 52° |
| 2026-04-23 15:24 | 26.12668 | -149.28447 | 39148 ft | 524 kts | 52° |
| 2026-04-23 15:24 | 26.16451 | -149.21585 | 39149 ft | 524 kts | 53° |
| 2026-04-23 15:25 | 26.20248 | -149.14679 | 39149 ft | 524 kts | 53° |
| 2026-04-23 15:25 | 26.24053 | -149.07739 | 39149 ft | 524 kts | 53° |
| 2026-04-23 15:26 | 26.27816 | -149.00865 | 39150 ft | 524 kts | 53° |
| 2026-04-23 15:26 | 26.31595 | -148.93948 | 39150 ft | 524 kts | 53° |
| 2026-04-23 15:27 | 26.35372 | -148.87025 | 39149 ft | 522 kts | 53° |
| 2026-04-23 15:27 | 26.39134 | -148.80116 | 39148 ft | 524 kts | 53° |
| 2026-04-23 15:28 | 26.42923 | -148.73151 | 39148 ft | 524 kts | 53° |
| 2026-04-23 15:28 | 26.46677 | -148.66238 | 39147 ft | 524 kts | 53° |
| 2026-04-23 15:29 | 26.50449 | -148.59280 | 39147 ft | 524 kts | 53° |
| 2026-04-23 15:29 | 26.54216 | -148.52322 | 39147 ft | 524 kts | 53° |
| 2026-04-23 15:30 | 26.57965 | -148.45387 | 39146 ft | 524 kts | 53° |
| 2026-04-23 15:30 | 26.61708 | -148.38454 | 39146 ft | 524 kts | 53° |
| 2026-04-23 15:31 | 26.65472 | -148.31459 | 39144 ft | 525 kts | 54° |
| 2026-04-23 15:31 | 26.69199 | -148.24493 | 39143 ft | 525 kts | 54° |
| 2026-04-23 15:32 | 26.72947 | -148.17496 | 39146 ft | 523 kts | 54° |
| 2026-04-23 15:32 | 26.76692 | -148.10510 | 39144 ft | 524 kts | 54° |
| 2026-04-23 15:33 | 26.80428 | -148.03529 | 39144 ft | 524 kts | 54° |
| 2026-04-23 15:33 | 26.84166 | -147.96538 | 39144 ft | 524 kts | 54° |
| 2026-04-23 15:34 | 26.87903 | -147.89537 | 39149 ft | 524 kts | 54° |
| 2026-04-23 15:34 | 26.91616 | -147.82571 | 39154 ft | 524 kts | 54° |
| 2026-04-23 15:35 | 26.95356 | -147.75543 | 39151 ft | 524 kts | 54° |
| 2026-04-23 15:35 | 26.99066 | -147.68559 | 39145 ft | 524 kts | 54° |
| 2026-04-23 15:36 | 27.02770 | -147.61574 | 39145 ft | 524 kts | 54° |
| 2026-04-23 15:36 | 27.06491 | -147.54549 | 39145 ft | 524 kts | 54° |
| 2026-04-23 15:37 | 27.10199 | -147.47536 | 39146 ft | 524 kts | 54° |
| 2026-04-23 15:37 | 27.13931 | -147.40514 | 39147 ft | 523 kts | 54° |
| 2026-04-23 15:38 | 27.17629 | -147.33519 | 39147 ft | 524 kts | 55° |
| 2026-04-23 15:38 | 27.21315 | -147.26468 | 39148 ft | 524 kts | 55° |
| 2026-04-23 15:39 | 27.25013 | -147.19418 | 39149 ft | 524 kts | 54° |
| 2026-04-23 15:39 | 27.28684 | -147.12439 | 39152 ft | 523 kts | 54° |
| 2026-04-23 15:40 | 27.32377 | -147.05400 | 39150 ft | 523 kts | 55° |
| 2026-04-23 15:40 | 27.36084 | -146.98315 | 39151 ft | 524 kts | 55° |
| 2026-04-23 15:41 | 27.39759 | -146.91275 | 39152 ft | 524 kts | 55° |
| 2026-04-23 15:41 | 27.43424 | -146.84244 | 39152 ft | 524 kts | 55° |
| 2026-04-23 15:42 | 27.47104 | -146.77171 | 39152 ft | 524 kts | 55° |
| 2026-04-23 15:42 | 27.50790 | -146.70076 | 39152 ft | 524 kts | 55° |
| 2026-04-23 15:43 | 27.54454 | -146.63011 | 39154 ft | 523 kts | 55° |
| 2026-04-23 15:43 | 27.58116 | -146.55937 | 39154 ft | 523 kts | 55° |
| 2026-04-23 15:44 | 27.61774 | -146.48860 | 39154 ft | 523 kts | 55° |
| 2026-04-23 15:44 | 27.65434 | -146.41771 | 39153 ft | 524 kts | 55° |
| 2026-04-23 15:45 | 27.69071 | -146.34712 | 39154 ft | 524 kts | 56° |
| 2026-04-23 15:45 | 27.72725 | -146.27573 | 39154 ft | 523 kts | 56° |
| 2026-04-23 15:46 | 27.76349 | -146.20488 | 39152 ft | 524 kts | 56° |
| 2026-04-23 15:46 | 27.79994 | -146.13371 | 39153 ft | 524 kts | 56° |
| 2026-04-23 15:47 | 27.83617 | -146.06290 | 39153 ft | 523 kts | 56° |
| 2026-04-23 15:47 | 27.87256 | -145.99167 | 39150 ft | 524 kts | 56° |
| 2026-04-23 15:48 | 27.90896 | -145.92029 | 39150 ft | 524 kts | 56° |
| 2026-04-23 15:48 | 27.94496 | -145.84959 | 39149 ft | 523 kts | 56° |
| 2026-04-23 15:49 | 27.98128 | -145.77817 | 39148 ft | 524 kts | 56° |
| 2026-04-23 15:49 | 28.01743 | -145.70695 | 39148 ft | 524 kts | 56° |
| 2026-04-23 15:50 | 28.05354 | -145.63568 | 39149 ft | 524 kts | 56° |
| 2026-04-23 15:50 | 28.08959 | -145.56439 | 39150 ft | 523 kts | 56° |
| 2026-04-23 15:51 | 28.12580 | -145.49304 | 39149 ft | 523 kts | 56° |
| 2026-04-23 15:51 | 28.16207 | -145.42169 | 39150 ft | 523 kts | 56° |
| 2026-04-23 15:52 | 28.19825 | -145.35005 | 39150 ft | 523 kts | 56° |
| 2026-04-23 15:52 | 28.23394 | -145.27876 | 39149 ft | 524 kts | 57° |
| 2026-04-23 15:53 | 28.26984 | -145.20688 | 39150 ft | 524 kts | 57° |
| 2026-04-23 15:53 | 28.30582 | -145.13493 | 39150 ft | 524 kts | 57° |
| 2026-04-23 15:54 | 28.34153 | -145.06346 | 39151 ft | 524 kts | 57° |
| 2026-04-23 15:54 | 28.37743 | -144.99149 | 39151 ft | 523 kts | 57° |
| 2026-04-23 15:55 | 28.41314 | -144.91977 | 39151 ft | 523 kts | 57° |
| 2026-04-23 15:55 | 28.44871 | -144.84825 | 39150 ft | 523 kts | 57° |
| 2026-04-23 15:56 | 28.48448 | -144.77618 | 39151 ft | 523 kts | 57° |
| 2026-04-23 15:56 | 28.52010 | -144.70430 | 39151 ft | 523 kts | 57° |
| 2026-04-23 15:57 | 28.55558 | -144.63260 | 39150 ft | 523 kts | 57° |
| 2026-04-23 15:57 | 28.59125 | -144.56038 | 39151 ft | 523 kts | 57° |
| 2026-04-23 15:58 | 28.62673 | -144.48840 | 39151 ft | 523 kts | 57° |
| 2026-04-23 15:58 | 28.66209 | -144.41650 | 39152 ft | 523 kts | 57° |
| 2026-04-23 15:59 | 28.69760 | -144.34422 | 39150 ft | 523 kts | 57° |
| 2026-04-23 15:59 | 28.73299 | -144.27173 | 39151 ft | 523 kts | 57° |
| 2026-04-23 16:00 | 28.76826 | -144.19943 | 39151 ft | 523 kts | 57° |
| 2026-04-23 16:00 | 28.80349 | -144.12720 | 39152 ft | 523 kts | 57° |
| 2026-04-23 16:01 | 28.83889 | -144.05458 | 39152 ft | 523 kts | 57° |
| 2026-04-23 16:01 | 28.87420 | -143.98206 | 39153 ft | 523 kts | 57° |
| 2026-04-23 16:02 | 28.90937 | -143.90968 | 39155 ft | 523 kts | 57° |
| 2026-04-23 16:02 | 28.94471 | -143.83685 | 39159 ft | 523 kts | 58° |
| 2026-04-23 16:03 | 28.97993 | -143.76411 | 39157 ft | 523 kts | 58° |
| 2026-04-23 16:03 | 29.01508 | -143.69139 | 39154 ft | 523 kts | 58° |
| 2026-04-23 16:04 | 29.05014 | -143.61873 | 39154 ft | 523 kts | 58° |
| 2026-04-23 16:04 | 29.08492 | -143.54652 | 39154 ft | 523 kts | 58° |
| 2026-04-23 16:05 | 29.11422 | -143.48572 | 39154 ft | 522 kts | 57° |
| 2026-04-23 16:05 | 29.15537 | -143.40074 | 39154 ft | 523 kts | 57° |
| 2026-04-23 16:06 | 29.19032 | -143.32802 | 39153 ft | 523 kts | 58° |
| 2026-04-23 16:06 | 29.22501 | -143.25523 | 39154 ft | 523 kts | 58° |
| 2026-04-23 16:07 | 29.25978 | -143.18224 | 39155 ft | 523 kts | 58° |
| 2026-04-23 16:07 | 29.29453 | -143.10925 | 39156 ft | 524 kts | 58° |
| 2026-04-23 16:08 | 29.32928 | -143.03612 | 39155 ft | 524 kts | 58° |
| 2026-04-23 16:08 | 29.36412 | -142.96271 | 39156 ft | 524 kts | 58° |
| 2026-04-23 16:09 | 29.39895 | -142.88919 | 39156 ft | 524 kts | 58° |
| 2026-04-23 16:09 | 29.43366 | -142.81581 | 39156 ft | 524 kts | 58° |
| 2026-04-23 16:10 | 29.46815 | -142.74275 | 39156 ft | 524 kts | 58° |
| 2026-04-23 16:10 | 29.50274 | -142.66933 | 39154 ft | 524 kts | 58° |
| 2026-04-23 16:11 | 29.53748 | -142.59547 | 39155 ft | 524 kts | 58° |
| 2026-04-23 16:11 | 29.57206 | -142.52184 | 39155 ft | 525 kts | 58° |
| 2026-04-23 16:12 | 29.60655 | -142.44826 | 39155 ft | 526 kts | 58° |
| 2026-04-23 16:12 | 29.64106 | -142.37448 | 39154 ft | 526 kts | 58° |
| 2026-04-23 16:13 | 29.67554 | -142.30046 | 39154 ft | 526 kts | 59° |
| 2026-04-23 16:13 | 29.72709 | -142.18932 | 39157 ft | 526 kts | 59° |
| 2026-04-23 16:14 | 29.76154 | -142.11511 | 39154 ft | 527 kts | 59° |
| 2026-04-23 16:14 | 29.79608 | -142.04065 | 39153 ft | 527 kts | 59° |
| 2026-04-23 16:15 | 29.83052 | -141.96625 | 39152 ft | 528 kts | 59° |
| 2026-04-23 16:15 | 29.86478 | -141.89209 | 39152 ft | 528 kts | 59° |
| 2026-04-23 16:16 | 29.89930 | -141.81722 | 39155 ft | 528 kts | 59° |
| 2026-04-23 16:16 | 29.93378 | -141.74231 | 39157 ft | 528 kts | 59° |
| 2026-04-23 16:17 | 29.96812 | -141.66756 | 39160 ft | 528 kts | 59° |
| 2026-04-23 16:17 | 30.00225 | -141.59312 | 39161 ft | 528 kts | 59° |
| 2026-04-23 16:18 | 30.03647 | -141.51833 | 39157 ft | 528 kts | 59° |
| 2026-04-23 16:18 | 30.07088 | -141.44301 | 39156 ft | 528 kts | 59° |
| 2026-04-23 16:19 | 30.10497 | -141.36821 | 39160 ft | 527 kts | 59° |
| 2026-04-23 16:19 | 30.13920 | -141.29343 | 39159 ft | 528 kts | 59° |
| 2026-04-23 16:20 | 30.17333 | -141.21837 | 39165 ft | 527 kts | 59° |
| 2026-04-23 16:20 | 30.20722 | -141.14359 | 39174 ft | 527 kts | 59° |
| 2026-04-23 16:21 | 30.24128 | -141.06825 | 39181 ft | 526 kts | 59° |
| 2026-04-23 16:21 | 30.27507 | -140.99335 | 39186 ft | 526 kts | 59° |
| 2026-04-23 16:22 | 30.30887 | -140.91829 | 39185 ft | 527 kts | 59° |
| 2026-04-23 16:22 | 30.34276 | -140.84288 | 39186 ft | 527 kts | 59° |
| 2026-04-23 16:23 | 30.37618 | -140.76827 | 39185 ft | 526 kts | 59° |
| 2026-04-23 16:23 | 30.40990 | -140.69293 | 39186 ft | 527 kts | 59° |
| 2026-04-23 16:24 | 30.44376 | -140.61734 | 39188 ft | 526 kts | 59° |
| 2026-04-23 16:24 | 30.47737 | -140.54205 | 39186 ft | 527 kts | 59° |
| 2026-04-23 16:25 | 30.51077 | -140.46701 | 39186 ft | 527 kts | 59° |
| 2026-04-23 16:25 | 30.54451 | -140.39099 | 39186 ft | 527 kts | 59° |
| 2026-04-23 16:26 | 30.57795 | -140.31538 | 39183 ft | 527 kts | 60° |
| 2026-04-23 16:26 | 30.61123 | -140.23973 | 39184 ft | 527 kts | 60° |
| 2026-04-23 16:27 | 30.64450 | -140.16409 | 39183 ft | 527 kts | 60° |
| 2026-04-23 16:27 | 30.67774 | -140.08850 | 39182 ft | 527 kts | 60° |
| 2026-04-23 16:28 | 30.71099 | -140.01276 | 39181 ft | 527 kts | 60° |
| 2026-04-23 16:28 | 30.74437 | -139.93658 | 39180 ft | 527 kts | 60° |
| 2026-04-23 16:29 | 30.77754 | -139.86078 | 39176 ft | 526 kts | 60° |
| 2026-04-23 16:29 | 30.81071 | -139.78479 | 39172 ft | 527 kts | 60° |
| 2026-04-23 16:30 | 30.84372 | -139.70901 | 39175 ft | 527 kts | 60° |
| 2026-04-23 16:30 | 30.87666 | -139.63327 | 39175 ft | 527 kts | 60° |
| 2026-04-23 16:31 | 30.90971 | -139.55713 | 39180 ft | 527 kts | 60° |
| 2026-04-23 16:31 | 30.94263 | -139.48111 | 39189 ft | 526 kts | 60° |
| 2026-04-23 16:32 | 30.97557 | -139.40491 | 39196 ft | 526 kts | 60° |
| 2026-04-23 16:32 | 31.00830 | -139.32898 | 39196 ft | 526 kts | 61° |
| 2026-04-23 16:33 | 31.04093 | -139.25282 | 39198 ft | 527 kts | 61° |
| 2026-04-23 16:33 | 31.07375 | -139.17621 | 39199 ft | 526 kts | 61° |
| 2026-04-23 16:34 | 31.10645 | -139.09988 | 39199 ft | 526 kts | 61° |
| 2026-04-23 16:34 | 31.13926 | -139.02390 | 39199 ft | 526 kts | 61° |
| 2026-04-23 16:35 | 31.17195 | -138.94783 | 39199 ft | 527 kts | 61° |
| 2026-04-23 16:35 | 31.20460 | -138.87135 | 39199 ft | 527 kts | 61° |
| 2026-04-23 16:36 | 31.23717 | -138.79480 | 39199 ft | 527 kts | 61° |
| 2026-04-23 16:36 | 31.26973 | -138.71805 | 39199 ft | 527 kts | 61° |
| 2026-04-23 16:37 | 31.30214 | -138.64149 | 39197 ft | 527 kts | 61° |
| 2026-04-23 16:37 | 31.33460 | -138.56468 | 39197 ft | 528 kts | 62° |
| 2026-04-23 16:38 | 31.36699 | -138.48782 | 39195 ft | 528 kts | 62° |
| 2026-04-23 16:38 | 31.39939 | -138.41077 | 39195 ft | 528 kts | 62° |
| 2026-04-23 16:39 | 31.43164 | -138.33392 | 39192 ft | 528 kts | 62° |
| 2026-04-23 16:39 | 31.46396 | -138.25644 | 39193 ft | 529 kts | 62° |
| 2026-04-23 16:40 | 31.49599 | -138.17958 | 39193 ft | 529 kts | 62° |
| 2026-04-23 16:40 | 31.52831 | -138.10204 | 39194 ft | 529 kts | 63° |
| 2026-04-23 16:41 | 31.56033 | -138.02510 | 39196 ft | 529 kts | 63° |
| 2026-04-23 16:41 | 31.59256 | -137.94750 | 39197 ft | 529 kts | 63° |
| 2026-04-23 16:42 | 31.62458 | -137.87024 | 39201 ft | 528 kts | 63° |
| 2026-04-23 16:42 | 31.65671 | -137.79259 | 39202 ft | 529 kts | 63° |
| 2026-04-23 16:43 | 31.68859 | -137.71535 | 39209 ft | 529 kts | 63° |
| 2026-04-23 16:43 | 31.72052 | -137.63782 | 39207 ft | 530 kts | 63° |
| 2026-04-23 16:44 | 31.75250 | -137.55997 | 39211 ft | 530 kts | 63° |
| 2026-04-23 16:44 | 31.78444 | -137.48209 | 39213 ft | 530 kts | 63° |
| 2026-04-23 16:45 | 31.81627 | -137.40425 | 39214 ft | 530 kts | 63° |
| 2026-04-23 16:45 | 31.84811 | -137.32617 | 39215 ft | 530 kts | 64° |
| 2026-04-23 16:46 | 31.87981 | -137.24799 | 39217 ft | 531 kts | 64° |
| 2026-04-23 16:46 | 31.91144 | -137.16995 | 39214 ft | 531 kts | 63° |
| 2026-04-23 16:47 | 31.94311 | -137.09180 | 39212 ft | 531 kts | 63° |
| 2026-04-23 16:47 | 31.97474 | -137.01363 | 39212 ft | 531 kts | 63° |
| 2026-04-23 16:48 | 32.00646 | -136.93507 | 39213 ft | 531 kts | 63° |
| 2026-04-23 16:48 | 32.03813 | -136.85651 | 39209 ft | 531 kts | 64° |
| 2026-04-23 16:49 | 32.06952 | -136.77846 | 39198 ft | 530 kts | 64° |
| 2026-04-23 16:49 | 32.10090 | -136.70026 | 39195 ft | 529 kts | 64° |
| 2026-04-23 16:50 | 32.13245 | -136.62210 | 39206 ft | 528 kts | 64° |
| 2026-04-23 16:50 | 32.16393 | -136.54385 | 39209 ft | 529 kts | 64° |
| 2026-04-23 16:51 | 32.19516 | -136.46567 | 39209 ft | 529 kts | 64° |
| 2026-04-23 16:51 | 32.22655 | -136.38676 | 39209 ft | 530 kts | 64° |
| 2026-04-23 16:52 | 32.25766 | -136.30823 | 39207 ft | 530 kts | 65° |
| 2026-04-23 16:52 | 32.28866 | -136.22955 | 39207 ft | 531 kts | 65° |
| 2026-04-23 16:53 | 32.31977 | -136.15060 | 39206 ft | 531 kts | 65° |
| 2026-04-23 16:53 | 32.35087 | -136.07161 | 39205 ft | 531 kts | 65° |
| 2026-04-23 16:54 | 32.38195 | -135.99254 | 39204 ft | 532 kts | 65° |
| 2026-04-23 16:54 | 32.41300 | -135.91336 | 39204 ft | 532 kts | 65° |
| 2026-04-23 16:55 | 32.44393 | -135.83435 | 39209 ft | 532 kts | 65° |
| 2026-04-23 16:55 | 32.47498 | -135.75482 | 39210 ft | 532 kts | 65° |
| 2026-04-23 16:56 | 32.50587 | -135.67551 | 39207 ft | 531 kts | 65° |
| 2026-04-23 16:56 | 32.53672 | -135.59611 | 39207 ft | 531 kts | 65° |
| 2026-04-23 16:57 | 32.56742 | -135.51695 | 39209 ft | 530 kts | 65° |
| 2026-04-23 16:57 | 32.59816 | -135.43747 | 39211 ft | 530 kts | 65° |
| 2026-04-23 16:58 | 32.62862 | -135.35857 | 39214 ft | 529 kts | 65° |
| 2026-04-23 16:58 | 32.65895 | -135.27956 | 39214 ft | 529 kts | 66° |
| 2026-04-23 16:59 | 32.68930 | -135.20021 | 39218 ft | 528 kts | 66° |
| 2026-04-23 16:59 | 32.71979 | -135.12056 | 39220 ft | 528 kts | 66° |
| 2026-04-23 17:00 | 32.75001 | -135.04147 | 39221 ft | 528 kts | 66° |
| 2026-04-23 17:00 | 32.78009 | -134.96262 | 39221 ft | 527 kts | 66° |
| 2026-04-23 17:01 | 32.81020 | -134.88353 | 39220 ft | 527 kts | 66° |
| 2026-04-23 17:01 | 32.84020 | -134.80446 | 39221 ft | 527 kts | 66° |
| 2026-04-23 17:02 | 32.87042 | -134.72466 | 39220 ft | 527 kts | 66° |
| 2026-04-23 17:02 | 32.90032 | -134.64551 | 39220 ft | 527 kts | 66° |
| 2026-04-23 17:03 | 32.93026 | -134.56612 | 39220 ft | 527 kts | 66° |
| 2026-04-23 17:03 | 32.96016 | -134.48663 | 39220 ft | 527 kts | 66° |
| 2026-04-23 17:04 | 32.98997 | -134.40718 | 39219 ft | 527 kts | 66° |
| 2026-04-23 17:04 | 33.01973 | -134.32768 | 39217 ft | 527 kts | 67° |
| 2026-04-23 17:05 | 33.04921 | -134.24844 | 39218 ft | 526 kts | 67° |
| 2026-04-23 17:05 | 33.07878 | -134.16891 | 39218 ft | 526 kts | 67° |
| 2026-04-23 17:06 | 33.10846 | -134.08911 | 39216 ft | 526 kts | 66° |
| 2026-04-23 17:06 | 33.13824 | -134.00970 | 39217 ft | 526 kts | 66° |
| 2026-04-23 17:07 | 33.16768 | -133.93054 | 39214 ft | 525 kts | 67° |
| 2026-04-23 17:07 | 33.19712 | -133.85080 | 39210 ft | 525 kts | 67° |
| 2026-04-23 17:08 | 33.22648 | -133.77100 | 39217 ft | 526 kts | 67° |
| 2026-04-23 17:08 | 33.25570 | -133.69135 | 39218 ft | 526 kts | 67° |
| 2026-04-23 17:09 | 33.28494 | -133.61150 | 39207 ft | 526 kts | 67° |
| 2026-04-23 17:09 | 33.31433 | -133.53134 | 39204 ft | 526 kts | 67° |
| 2026-04-23 17:10 | 33.34360 | -133.45126 | 39204 ft | 526 kts | 67° |
| 2026-04-23 17:10 | 33.37286 | -133.37091 | 39204 ft | 526 kts | 67° |
| 2026-04-23 17:11 | 33.40186 | -133.29088 | 39204 ft | 526 kts | 68° |
| 2026-04-23 17:11 | 33.43074 | -133.21088 | 39314 ft | 527 kts | 68° |
| 2026-04-23 17:12 | 33.44529 | -133.17053 | 39462 ft | 524 kts | 68° |
| 2026-04-23 17:12 | 33.45980 | -133.13032 | 39575 ft | 525 kts | 68° |
| 2026-04-23 17:12 | 33.48863 | -133.05029 | 39760 ft | 527 kts | 68° |
| 2026-04-23 17:13 | 33.50325 | -133.00963 | 39877 ft | 527 kts | 68° |
| 2026-04-23 17:13 | 33.51767 | -132.96948 | 40003 ft | 525 kts | 68° |
| 2026-04-23 17:13 | 33.53207 | -132.92935 | 40106 ft | 526 kts | 68° |
| 2026-04-23 17:13 | 33.54641 | -132.88933 | 40198 ft | 527 kts | 68° |
| 2026-04-23 17:14 | 33.57520 | -132.80885 | 40382 ft | 527 kts | 67° |
| 2026-04-23 17:14 | 33.60393 | -132.72833 | 40601 ft | 527 kts | 67° |
| 2026-04-23 17:15 | 33.61842 | -132.68767 | 40719 ft | 527 kts | 67° |
| 2026-04-23 17:15 | 33.63269 | -132.64757 | 40823 ft | 527 kts | 67° |
| 2026-04-23 17:15 | 33.66135 | -132.56685 | 41008 ft | 528 kts | 67° |
| 2026-04-23 17:16 | 33.69014 | -132.48561 | 41210 ft | 528 kts | 67° |
| 2026-04-23 17:16 | 33.71875 | -132.40462 | 41206 ft | 528 kts | 67° |
| 2026-04-23 17:17 | 33.74735 | -132.32347 | 41211 ft | 528 kts | 68° |
| 2026-04-23 17:17 | 33.77557 | -132.24284 | 41214 ft | 528 kts | 68° |
| 2026-04-23 17:18 | 33.81828 | -132.12076 | 41214 ft | 528 kts | 68° |
| 2026-04-23 17:19 | 33.84659 | -132.03970 | 41214 ft | 528 kts | 68° |
| 2026-04-23 17:19 | 33.87475 | -131.95888 | 41215 ft | 528 kts | 68° |
| 2026-04-23 17:20 | 33.90306 | -131.87744 | 41215 ft | 528 kts | 68° |
| 2026-04-23 17:21 | 33.95938 | -131.71474 | 41207 ft | 527 kts | 68° |
| 2026-04-23 17:21 | 34.00136 | -131.59296 | 41205 ft | 527 kts | 68° |
| 2026-04-23 17:22 | 34.04339 | -131.47057 | 41206 ft | 528 kts | 68° |
| 2026-04-23 17:23 | 34.08518 | -131.34837 | 41220 ft | 528 kts | 68° |
| 2026-04-23 17:24 | 34.12714 | -131.22560 | 41219 ft | 528 kts | 68° |
| 2026-04-23 17:24 | 34.16900 | -131.10298 | 41219 ft | 528 kts | 68° |
| 2026-04-23 17:25 | 34.21039 | -130.98067 | 41219 ft | 527 kts | 68° |
| 2026-04-23 17:26 | 34.26552 | -130.81685 | 41217 ft | 528 kts | 69° |
| 2026-04-23 17:27 | 34.30671 | -130.69388 | 41213 ft | 528 kts | 69° |
| 2026-04-23 17:27 | 34.33411 | -130.61182 | 41212 ft | 528 kts | 69° |
| 2026-04-23 17:28 | 34.36161 | -130.52920 | 41209 ft | 529 kts | 69° |
| 2026-04-23 17:28 | 34.38893 | -130.44693 | 41208 ft | 529 kts | 69° |
| 2026-04-23 17:29 | 34.41611 | -130.36484 | 41206 ft | 530 kts | 69° |
| 2026-04-23 17:30 | 34.45715 | -130.24019 | 41203 ft | 530 kts | 69° |
| 2026-04-23 17:30 | 34.49777 | -130.11638 | 41202 ft | 531 kts | 70° |
| 2026-04-23 17:31 | 34.52500 | -130.03320 | 41202 ft | 531 kts | 70° |
| 2026-04-23 17:31 | 34.55216 | -129.95007 | 41204 ft | 530 kts | 70° |
| 2026-04-23 17:32 | 34.57921 | -129.86705 | 41211 ft | 531 kts | 69° |
| 2026-04-23 17:32 | 34.60604 | -129.78444 | 41211 ft | 531 kts | 69° |
| 2026-04-23 17:33 | 34.63317 | -129.70075 | 41206 ft | 532 kts | 69° |
| 2026-04-23 17:33 | 34.66005 | -129.61754 | 41205 ft | 532 kts | 69° |
| 2026-04-23 17:34 | 34.68696 | -129.53406 | 41206 ft | 532 kts | 69° |
| 2026-04-23 17:35 | 34.72711 | -129.40906 | 41207 ft | 532 kts | 69° |
| 2026-04-23 17:35 | 34.76717 | -129.28366 | 41206 ft | 532 kts | 70° |
| 2026-04-23 17:36 | 34.79385 | -129.19966 | 41207 ft | 532 kts | 70° |
| 2026-04-23 17:36 | 34.82041 | -129.11595 | 41206 ft | 533 kts | 70° |
| 2026-04-23 17:37 | 34.84695 | -129.03221 | 41204 ft | 533 kts | 70° |
| 2026-04-23 17:38 | 34.88672 | -128.90628 | 41201 ft | 533 kts | 70° |
| 2026-04-23 17:38 | 34.91319 | -128.82217 | 41200 ft | 533 kts | 70° |
| 2026-04-23 17:39 | 34.93964 | -128.73789 | 41200 ft | 534 kts | 70° |
| 2026-04-23 17:39 | 34.96598 | -128.65373 | 41201 ft | 534 kts | 70° |
| 2026-04-23 17:40 | 34.99229 | -128.56941 | 41202 ft | 535 kts | 70° |
| 2026-04-23 17:40 | 35.01860 | -128.48486 | 41204 ft | 535 kts | 70° |
| 2026-04-23 17:41 | 35.04495 | -128.39992 | 41204 ft | 535 kts | 70° |
| 2026-04-23 17:41 | 35.08413 | -128.27295 | 41200 ft | 535 kts | 70° |
| 2026-04-23 17:42 | 35.12329 | -128.14615 | 41199 ft | 535 kts | 70° |
| 2026-04-23 17:43 | 35.14962 | -128.06116 | 41198 ft | 536 kts | 70° |
| 2026-04-23 17:43 | 35.17577 | -127.97595 | 41195 ft | 536 kts | 70° |
| 2026-04-23 17:44 | 35.20175 | -127.89078 | 41194 ft | 537 kts | 70° |
| 2026-04-23 17:44 | 35.24066 | -127.76262 | 41193 ft | 538 kts | 70° |
| 2026-04-23 17:45 | 35.27949 | -127.63428 | 41190 ft | 539 kts | 70° |
| 2026-04-23 17:46 | 35.31827 | -127.50544 | 41188 ft | 539 kts | 70° |
| 2026-04-23 17:46 | 35.34385 | -127.42017 | 41185 ft | 539 kts | 70° |
| 2026-04-23 17:47 | 35.36955 | -127.33426 | 41182 ft | 539 kts | 70° |
| 2026-04-23 17:48 | 35.40800 | -127.20475 | 41182 ft | 539 kts | 70° |
| 2026-04-23 17:48 | 35.43338 | -127.11910 | 41182 ft | 539 kts | 70° |
| 2026-04-23 17:49 | 35.45892 | -127.03275 | 41182 ft | 539 kts | 70° |
| 2026-04-23 17:49 | 35.48436 | -126.94650 | 41184 ft | 539 kts | 70° |
| 2026-04-23 17:50 | 35.50983 | -126.85992 | 41186 ft | 539 kts | 70° |
| 2026-04-23 17:50 | 35.54767 | -126.73077 | 41187 ft | 540 kts | 70° |
| 2026-04-23 17:51 | 35.57290 | -126.64432 | 41188 ft | 540 kts | 70° |
| 2026-04-23 17:52 | 35.61076 | -126.51410 | 41189 ft | 540 kts | 70° |
| 2026-04-23 17:52 | 35.64826 | -126.38448 | 41189 ft | 541 kts | 70° |
| 2026-04-23 17:53 | 35.68577 | -126.25397 | 41188 ft | 542 kts | 70° |
| 2026-04-23 17:54 | 35.71075 | -126.16679 | 41189 ft | 542 kts | 70° |
| 2026-04-23 17:54 | 35.75074 | -126.03719 | 41190 ft | 542 kts | 66° |
| 2026-04-23 17:55 | 35.79484 | -125.90951 | 41189 ft | 542 kts | 66° |
| 2026-04-23 17:56 | 35.82420 | -125.82407 | 41191 ft | 542 kts | 66° |
| 2026-04-23 17:56 | 35.86785 | -125.69612 | 41206 ft | 542 kts | 66° |
| 2026-04-23 17:57 | 35.89691 | -125.61056 | 41209 ft | 542 kts | 66° |
| 2026-04-23 17:58 | 35.94026 | -125.48251 | 41208 ft | 542 kts | 66° |
| 2026-04-23 17:58 | 35.96926 | -125.39657 | 41207 ft | 542 kts | 66° |
| 2026-04-23 17:59 | 35.99797 | -125.31117 | 41203 ft | 542 kts | 66° |
| 2026-04-23 17:59 | 36.02674 | -125.22505 | 41204 ft | 542 kts | 66° |
| 2026-04-23 18:00 | 36.05520 | -125.13980 | 41200 ft | 541 kts | 66° |
| 2026-04-23 18:00 | 36.08380 | -125.05403 | 41197 ft | 542 kts | 66° |
| 2026-04-23 18:01 | 36.11270 | -124.96740 | 41198 ft | 542 kts | 66° |
| 2026-04-23 18:01 | 36.14147 | -124.88156 | 41199 ft | 542 kts | 66° |
| 2026-04-23 18:02 | 36.16998 | -124.79545 | 41200 ft | 542 kts | 66° |
| 2026-04-23 18:02 | 36.19756 | -124.70923 | 41202 ft | 542 kts | 68° |
| 2026-04-23 18:03 | 36.22343 | -124.62224 | 41201 ft | 542 kts | 68° |
| 2026-04-23 18:03 | 36.24944 | -124.53423 | 41201 ft | 542 kts | 68° |
| 2026-04-23 18:04 | 36.27533 | -124.44688 | 41203 ft | 542 kts | 68° |
| 2026-04-23 18:04 | 36.30109 | -124.35992 | 41204 ft | 541 kts | 68° |
| 2026-04-23 18:05 | 36.32697 | -124.27211 | 41204 ft | 541 kts | 69° |
| 2026-04-23 18:05 | 36.35248 | -124.18525 | 41208 ft | 541 kts | 69° |
| 2026-04-23 18:06 | 36.37820 | -124.09757 | 41211 ft | 542 kts | 69° |
| 2026-04-23 18:06 | 36.40393 | -124.00967 | 41212 ft | 542 kts | 69° |
| 2026-04-23 18:07 | 36.42950 | -123.92206 | 41210 ft | 542 kts | 69° |
| 2026-04-23 18:07 | 36.45506 | -123.83421 | 41209 ft | 541 kts | 69° |
| 2026-04-23 18:08 | 36.47631 | -123.76096 | 41210 ft | 541 kts | 69° |
| 2026-04-23 18:08 | 36.50599 | -123.65829 | 41210 ft | 541 kts | 69° |
| 2026-04-23 18:09 | 36.53133 | -123.57037 | 41208 ft | 541 kts | 69° |
| 2026-04-23 18:09 | 36.55659 | -123.48241 | 41205 ft | 541 kts | 69° |
| 2026-04-23 18:10 | 36.58189 | -123.39403 | 41202 ft | 541 kts | 68° |
| 2026-04-23 18:10 | 36.60685 | -123.30652 | 41200 ft | 541 kts | 69° |
| 2026-04-23 18:11 | 36.63181 | -123.21839 | 41199 ft | 541 kts | 69° |
| 2026-04-23 18:11 | 36.65678 | -123.13017 | 41198 ft | 541 kts | 69° |
| 2026-04-23 18:12 | 36.68173 | -123.04185 | 41196 ft | 541 kts | 69° |
| 2026-04-23 18:12 | 36.70667 | -122.95330 | 41195 ft | 542 kts | 69° |
| 2026-04-23 18:13 | 36.73139 | -122.86527 | 41196 ft | 542 kts | 69° |
| 2026-04-23 18:13 | 36.75629 | -122.77634 | 41196 ft | 541 kts | 69° |
| 2026-04-23 18:14 | 36.78090 | -122.68814 | 41196 ft | 541 kts | 69° |
| 2026-04-23 18:14 | 36.80544 | -122.59987 | 41195 ft | 541 kts | 69° |
| 2026-04-23 18:15 | 36.83004 | -122.51109 | 41194 ft | 541 kts | 69° |
| 2026-04-23 18:15 | 36.85408 | -122.42406 | 41194 ft | 541 kts | 69° |
| 2026-04-23 18:16 | 36.87842 | -122.33568 | 41201 ft | 541 kts | 70° |
| 2026-04-23 18:16 | 36.90263 | -122.24715 | 41203 ft | 540 kts | 70° |
| 2026-04-23 18:17 | 36.93881 | -122.11437 | 41190 ft | 538 kts | 70° |
| 2026-04-23 18:17 | 36.96294 | -122.02563 | 41189 ft | 538 kts | 70° |
| 2026-04-23 18:18 | 36.98699 | -121.93696 | 41189 ft | 538 kts | 70° |
| 2026-04-23 18:18 | 37.01082 | -121.84879 | 41187 ft | 538 kts | 70° |
| 2026-04-23 18:19 | 37.03476 | -121.75990 | 41183 ft | 538 kts | 70° |
| 2026-04-23 18:19 | 37.05870 | -121.67066 | 41185 ft | 538 kts | 69° |
| 2026-04-23 18:20 | 37.08243 | -121.58202 | 41190 ft | 538 kts | 69° |
| 2026-04-23 18:20 | 37.10609 | -121.49339 | 41193 ft | 538 kts | 69° |
| 2026-04-23 18:21 | 37.13007 | -121.40440 | 41202 ft | 538 kts | 69° |
| 2026-04-23 18:21 | 37.15370 | -121.31579 | 41209 ft | 538 kts | 70° |
| 2026-04-23 18:22 | 37.17708 | -121.22694 | 41214 ft | 539 kts | 70° |
| 2026-04-23 18:22 | 37.20042 | -121.13798 | 41209 ft | 539 kts | 70° |
| 2026-04-23 18:23 | 37.23533 | -121.00456 | 41195 ft | 539 kts | 70° |
| 2026-04-23 18:24 | 37.27031 | -120.87022 | 41190 ft | 539 kts | 70° |
| 2026-04-23 18:25 | 37.30508 | -120.73592 | 41185 ft | 539 kts | 70° |
| 2026-04-23 18:25 | 37.32818 | -120.64626 | 41181 ft | 540 kts | 70° |
| 2026-04-23 18:26 | 37.35075 | -120.55661 | 41177 ft | 540 kts | 71° |
| 2026-04-23 18:26 | 37.37291 | -120.46694 | 41175 ft | 540 kts | 71° |
| 2026-04-23 18:27 | 37.39512 | -120.37677 | 41175 ft | 540 kts | 71° |
| 2026-04-23 18:27 | 37.41725 | -120.28653 | 41176 ft | 540 kts | 71° |
| 2026-04-23 18:28 | 37.43922 | -120.19649 | 41180 ft | 540 kts | 71° |
| 2026-04-23 18:28 | 37.46109 | -120.10676 | 41191 ft | 541 kts | 71° |
| 2026-04-23 18:29 | 37.48312 | -120.01615 | 41073 ft | 541 kts | 71° |
| 2026-04-23 18:29 | 37.49412 | -119.97076 | 40908 ft | 542 kts | 71° |
| 2026-04-23 18:29 | 37.50505 | -119.92563 | 40619 ft | 542 kts | 71° |
| 2026-04-23 18:29 | 37.51595 | -119.88052 | 40348 ft | 541 kts | 71° |
| 2026-04-23 18:30 | 37.52695 | -119.83489 | 40170 ft | 542 kts | 71° |
| 2026-04-23 18:30 | 37.53786 | -119.78953 | 40032 ft | 542 kts | 71° |
| 2026-04-23 18:30 | 37.54873 | -119.74427 | 39910 ft | 542 kts | 71° |
| 2026-04-23 18:30 | 37.55955 | -119.69916 | 39806 ft | 543 kts | 71° |
| 2026-04-23 18:31 | 37.57046 | -119.65354 | 39708 ft | 544 kts | 71° |
| 2026-04-23 18:31 | 37.59222 | -119.56231 | 39515 ft | 545 kts | 71° |
| 2026-04-23 18:32 | 37.61378 | -119.47160 | 39674 ft | 540 kts | 71° |
| 2026-04-23 18:32 | 37.62445 | -119.42656 | 40121 ft | 532 kts | 71° |
| 2026-04-23 18:32 | 37.63491 | -119.38226 | 40685 ft | 523 kts | 71° |
| 2026-04-23 18:32 | 37.64511 | -119.33903 | 41187 ft | 516 kts | 72° |
| 2026-04-23 18:33 | 37.65533 | -119.29563 | 41424 ft | 514 kts | 72° |
| 2026-04-23 18:33 | 37.66542 | -119.25266 | 41530 ft | 514 kts | 72° |
| 2026-04-23 18:33 | 37.67546 | -119.20986 | 41563 ft | 516 kts | 72° |
| 2026-04-23 18:34 | 37.69590 | -119.12251 | 41530 ft | 522 kts | 72° |
| 2026-04-23 18:34 | 37.71639 | -119.03469 | 41477 ft | 527 kts | 72° |
| 2026-04-23 18:35 | 37.73716 | -118.94535 | 41429 ft | 534 kts | 72° |
| 2026-04-23 18:35 | 37.75820 | -118.85447 | 41384 ft | 540 kts | 72° |
| 2026-04-23 18:36 | 37.77914 | -118.76371 | 41346 ft | 543 kts | 72° |
| 2026-04-23 18:36 | 37.80020 | -118.67202 | 41300 ft | 543 kts | 72° |
| 2026-04-23 18:37 | 37.82113 | -118.58060 | 41246 ft | 544 kts | 72° |
| 2026-04-23 18:37 | 37.84202 | -118.48898 | 41196 ft | 544 kts | 72° |
| 2026-04-23 18:38 | 37.86307 | -118.39630 | 41188 ft | 545 kts | 72° |
| 2026-04-23 18:38 | 37.88388 | -118.30421 | 41203 ft | 546 kts | 73° |
| 2026-04-23 18:39 | 37.90459 | -118.21198 | 41143 ft | 546 kts | 73° |
| 2026-04-23 18:39 | 37.92530 | -118.11957 | 41142 ft | 546 kts | 72° |
| 2026-04-23 18:40 | 37.94590 | -118.02740 | 41125 ft | 546 kts | 72° |
| 2026-04-23 18:40 | 37.96660 | -117.93450 | 41131 ft | 546 kts | 72° |
| 2026-04-23 18:41 | 37.98713 | -117.84205 | 41167 ft | 547 kts | 72° |
| 2026-04-23 18:41 | 38.00765 | -117.74952 | 41191 ft | 546 kts | 72° |
| 2026-04-23 18:42 | 38.02923 | -117.65708 | 41222 ft | 546 kts | 71° |
| 2026-04-23 18:42 | 38.05085 | -117.56529 | 41244 ft | 546 kts | 71° |
| 2026-04-23 18:43 | 38.07235 | -117.47311 | 41258 ft | 546 kts | 71° |
| 2026-04-23 18:43 | 38.09383 | -117.38049 | 41240 ft | 546 kts | 71° |
| 2026-04-23 18:44 | 38.11533 | -117.28793 | 41222 ft | 546 kts | 72° |
| 2026-04-23 18:44 | 38.13674 | -117.19606 | 41218 ft | 545 kts | 72° |
| 2026-04-23 18:45 | 38.15820 | -117.10371 | 41210 ft | 545 kts | 72° |
| 2026-04-23 18:45 | 38.17940 | -117.01190 | 41203 ft | 544 kts | 72° |
| 2026-04-23 18:46 | 38.20058 | -116.91971 | 41203 ft | 544 kts | 72° |
| 2026-04-23 18:46 | 38.22168 | -116.82750 | 41210 ft | 544 kts | 72° |
| 2026-04-23 18:47 | 38.24279 | -116.73489 | 41219 ft | 544 kts | 72° |
| 2026-04-23 18:47 | 38.26369 | -116.64278 | 41227 ft | 545 kts | 72° |
| 2026-04-23 18:48 | 38.28450 | -116.55064 | 41236 ft | 546 kts | 72° |
| 2026-04-23 18:48 | 38.30545 | -116.45744 | 41237 ft | 546 kts | 72° |
| 2026-04-23 18:49 | 38.32357 | -116.36388 | 41218 ft | 548 kts | 78° |
| 2026-04-23 18:49 | 38.33295 | -116.26804 | 41195 ft | 549 kts | 87° |
| 2026-04-23 18:50 | 38.33420 | -116.18733 | 41182 ft | 549 kts | 91° |
| 2026-04-23 18:50 | 38.33378 | -116.07478 | 41168 ft | 550 kts | 91° |
| 2026-04-23 18:51 | 38.33355 | -115.97718 | 41161 ft | 550 kts | 91° |
| 2026-04-23 18:51 | 38.33343 | -115.88064 | 41151 ft | 550 kts | 91° |
| 2026-04-23 18:52 | 38.33328 | -115.78329 | 41133 ft | 551 kts | 91° |
| 2026-04-23 18:52 | 38.33306 | -115.68630 | 41130 ft | 551 kts | 91° |
| 2026-04-23 18:53 | 38.33275 | -115.58869 | 41157 ft | 551 kts | 90° |
| 2026-04-23 18:53 | 38.33236 | -115.49109 | 41202 ft | 551 kts | 90° |
| 2026-04-23 18:54 | 38.33190 | -115.39372 | 41199 ft | 551 kts | 90° |
| 2026-04-23 18:54 | 38.33137 | -115.29647 | 41168 ft | 551 kts | 91° |
| 2026-04-23 18:55 | 38.33075 | -115.19984 | 41132 ft | 550 kts | 91° |
| 2026-04-23 18:55 | 38.33003 | -115.10254 | 41110 ft | 550 kts | 91° |
| 2026-04-23 18:56 | 38.32938 | -115.02161 | 41103 ft | 550 kts | 91° |
| 2026-04-23 18:56 | 38.32807 | -114.90878 | 41108 ft | 550 kts | 92° |
| 2026-04-23 18:57 | 38.32605 | -114.81199 | 41119 ft | 550 kts | 92° |
| 2026-04-23 18:57 | 38.32389 | -114.71450 | 41128 ft | 550 kts | 92° |
| 2026-04-23 18:58 | 38.32173 | -114.61753 | 41133 ft | 551 kts | 92° |
| 2026-04-23 18:58 | 38.31951 | -114.52035 | 41133 ft | 552 kts | 92° |
| 2026-04-23 18:59 | 38.31722 | -114.42262 | 41141 ft | 553 kts | 92° |
| 2026-04-23 18:59 | 38.31487 | -114.32536 | 41151 ft | 553 kts | 93° |
| 2026-04-23 19:00 | 38.31243 | -114.22774 | 41170 ft | 554 kts | 93° |
| 2026-04-23 19:00 | 38.30989 | -114.13017 | 41168 ft | 554 kts | 93° |
| 2026-04-23 19:01 | 38.30726 | -114.03213 | 41165 ft | 555 kts | 93° |
| 2026-04-23 19:01 | 38.30456 | -113.93441 | 41168 ft | 555 kts | 93° |
| 2026-04-23 19:02 | 38.30225 | -113.85305 | 41167 ft | 555 kts | 93° |
| 2026-04-23 19:02 | 38.29890 | -113.73859 | 41176 ft | 556 kts | 93° |
| 2026-04-23 19:03 | 38.29592 | -113.64014 | 41187 ft | 556 kts | 93° |
| 2026-04-23 19:03 | 38.29290 | -113.54250 | 41199 ft | 556 kts | 93° |
| 2026-04-23 19:04 | 38.28979 | -113.44450 | 41200 ft | 556 kts | 92° |
| 2026-04-23 19:04 | 38.28702 | -113.34634 | 41186 ft | 555 kts | 93° |
| 2026-04-23 19:05 | 38.28373 | -113.24886 | 41161 ft | 555 kts | 94° |
| 2026-04-23 19:05 | 38.28012 | -113.15128 | 41141 ft | 554 kts | 94° |
| 2026-04-23 19:06 | 38.27660 | -113.05393 | 41126 ft | 553 kts | 93° |
| 2026-04-23 19:06 | 38.27305 | -112.95602 | 41115 ft | 553 kts | 93° |
| 2026-04-23 19:07 | 38.26947 | -112.85891 | 41123 ft | 553 kts | 93° |
| 2026-04-23 19:07 | 38.26579 | -112.76129 | 41131 ft | 553 kts | 93° |
| 2026-04-23 19:08 | 38.26205 | -112.66331 | 41163 ft | 553 kts | 93° |
| 2026-04-23 19:08 | 38.25830 | -112.56602 | 41216 ft | 553 kts | 94° |
| 2026-04-23 19:09 | 38.25429 | -112.46862 | 41287 ft | 553 kts | 94° |
| 2026-04-23 19:09 | 38.25030 | -112.37110 | 41255 ft | 553 kts | 94° |
| 2026-04-23 19:10 | 38.24610 | -112.27367 | 41219 ft | 553 kts | 94° |
| 2026-04-23 19:10 | 38.24205 | -112.17590 | 41190 ft | 554 kts | 94° |
| 2026-04-23 19:11 | 38.23780 | -112.07815 | 41185 ft | 555 kts | 94° |
| 2026-04-23 19:11 | 38.23358 | -111.98079 | 41167 ft | 556 kts | 94° |
| 2026-04-23 19:12 | 38.22981 | -111.89875 | 41174 ft | 556 kts | 94° |
| 2026-04-23 19:12 | 38.22459 | -111.78481 | 41210 ft | 556 kts | 94° |
| 2026-04-23 19:13 | 38.22004 | -111.68641 | 41242 ft | 556 kts | 94° |
| 2026-04-23 19:13 | 38.21538 | -111.58875 | 41232 ft | 555 kts | 94° |
| 2026-04-23 19:14 | 38.21064 | -111.49116 | 41222 ft | 554 kts | 94° |
| 2026-04-23 19:14 | 38.20584 | -111.39401 | 41169 ft | 554 kts | 94° |
| 2026-04-23 19:15 | 38.20084 | -111.29649 | 41073 ft | 553 kts | 95° |
| 2026-04-23 19:15 | 38.19580 | -111.19906 | 41103 ft | 553 kts | 94° |
| 2026-04-23 19:16 | 38.19082 | -111.10136 | 41105 ft | 553 kts | 94° |
| 2026-04-23 19:16 | 38.18595 | -111.00442 | 41095 ft | 552 kts | 94° |
| 2026-04-23 19:17 | 38.17826 | -110.85835 | 41120 ft | 551 kts | 94° |
| 2026-04-23 19:17 | 38.17298 | -110.76181 | 41156 ft | 551 kts | 94° |
| 2026-04-23 19:18 | 38.16757 | -110.66476 | 41158 ft | 551 kts | 94° |
| 2026-04-23 19:18 | 38.16211 | -110.56822 | 41135 ft | 551 kts | 94° |
| 2026-04-23 19:19 | 38.15376 | -110.42312 | 41109 ft | 551 kts | 94° |
| 2026-04-23 19:20 | 38.14506 | -110.27794 | 41155 ft | 551 kts | 95° |
| 2026-04-23 19:20 | 38.13927 | -110.18107 | 41177 ft | 552 kts | 96° |
| 2026-04-23 19:21 | 38.13372 | -110.03548 | 41173 ft | 553 kts | 92° |
| 2026-04-23 19:22 | 38.13134 | -109.93842 | 41156 ft | 553 kts | 92° |
| 2026-04-23 19:22 | 38.12737 | -109.79229 | 41138 ft | 553 kts | 92° |
| 2026-04-23 19:23 | 38.12458 | -109.69490 | 41112 ft | 553 kts | 92° |
| 2026-04-23 19:24 | 38.12015 | -109.54904 | 41101 ft | 553 kts | 92° |
| 2026-04-23 19:24 | 38.11563 | -109.40304 | 41083 ft | 553 kts | 93° |
| 2026-04-23 19:25 | 38.10936 | -109.20878 | 41091 ft | 551 kts | 94° |
| 2026-04-23 19:26 | 38.10469 | -109.06360 | 41091 ft | 551 kts | 91° |
| 2026-04-23 19:27 | 38.11008 | -108.96668 | 41091 ft | 550 kts | 80° |
| 2026-04-23 19:27 | 38.14236 | -108.82873 | 41071 ft | 545 kts | 63° |
| 2026-04-23 19:28 | 38.21024 | -108.65701 | 41072 ft | 544 kts | 60° |
| 2026-04-23 19:29 | 38.26085 | -108.52834 | 41083 ft | 544 kts | 61° |
| 2026-04-23 19:30 | 38.31118 | -108.39898 | 41125 ft | 544 kts | 61° |
| 2026-04-23 19:31 | 38.36128 | -108.26938 | 41159 ft | 544 kts | 62° |
| 2026-04-23 19:31 | 38.39453 | -108.18298 | 41168 ft | 545 kts | 62° |
| 2026-04-23 19:32 | 38.42780 | -108.09651 | 41163 ft | 545 kts | 62° |
| 2026-04-23 19:32 | 38.46101 | -108.00999 | 41140 ft | 545 kts | 62° |
| 2026-04-23 19:33 | 38.49389 | -107.92333 | 41108 ft | 545 kts | 62° |
| 2026-04-23 19:33 | 38.54316 | -107.79256 | 41101 ft | 545 kts | 62° |
| 2026-04-23 19:34 | 38.57577 | -107.70579 | 41114 ft | 545 kts | 62° |
| 2026-04-23 19:35 | 38.62481 | -107.57483 | 41191 ft | 545 kts | 62° |
| 2026-04-23 19:35 | 38.65733 | -107.48766 | 41251 ft | 545 kts | 62° |
| 2026-04-23 19:36 | 38.69043 | -107.40015 | 40706 ft | 550 kts | 62° |
| 2026-04-23 19:36 | 38.70717 | -107.35609 | 39979 ft | 552 kts | 62° |
| 2026-04-23 19:36 | 38.72368 | -107.31245 | 39179 ft | 553 kts | 63° |
| 2026-04-23 19:36 | 38.74033 | -107.26817 | 38492 ft | 553 kts | 63° |
| 2026-04-23 19:37 | 38.75695 | -107.22384 | 37834 ft | 554 kts | 63° |
| 2026-04-23 19:37 | 38.77358 | -107.17949 | 37145 ft | 556 kts | 63° |
| 2026-04-23 19:37 | 38.79023 | -107.13506 | 36406 ft | 558 kts | 62° |
| 2026-04-23 19:37 | 38.80720 | -107.08978 | 35619 ft | 560 kts | 62° |
| 2026-04-23 19:38 | 38.82391 | -107.04513 | 34817 ft | 563 kts | 62° |
| 2026-04-23 19:38 | 38.84067 | -107.00028 | 34111 ft | 563 kts | 62° |
| 2026-04-23 19:38 | 38.85775 | -106.95454 | 33419 ft | 563 kts | 62° |
| 2026-04-23 19:38 | 38.87462 | -106.90930 | 32654 ft | 565 kts | 62° |
| 2026-04-23 19:39 | 38.89134 | -106.86444 | 31830 ft | 568 kts | 62° |
| 2026-04-23 19:39 | 38.90835 | -106.81870 | 30953 ft | 571 kts | 61° |
| 2026-04-23 19:39 | 38.92534 | -106.77299 | 30111 ft | 572 kts | 61° |
| 2026-04-23 19:39 | 38.94235 | -106.72719 | 29544 ft | 566 kts | 61° |
| 2026-04-23 19:40 | 38.95916 | -106.68189 | 29111 ft | 557 kts | 62° |
| 2026-04-23 19:40 | 38.97546 | -106.63779 | 28696 ft | 548 kts | 62° |
| 2026-04-23 19:40 | 38.99161 | -106.59415 | 28289 ft | 539 kts | 62° |
| 2026-04-23 19:40 | 39.00745 | -106.55100 | 27891 ft | 531 kts | 62° |
| 2026-04-23 19:41 | 39.02316 | -106.50813 | 27509 ft | 521 kts | 62° |
| 2026-04-23 19:41 | 39.03829 | -106.46664 | 27056 ft | 510 kts | 62° |
| 2026-04-23 19:41 | 39.05315 | -106.42592 | 26653 ft | 500 kts | 63° |
| 2026-04-23 19:41 | 39.06771 | -106.38593 | 26302 ft | 492 kts | 63° |
| 2026-04-23 19:42 | 39.08200 | -106.34673 | 25960 ft | 483 kts | 63° |
| 2026-04-23 19:42 | 39.09611 | -106.30784 | 25620 ft | 474 kts | 64° |
| 2026-04-23 19:42 | 39.10994 | -106.26975 | 25240 ft | 466 kts | 63° |
| 2026-04-23 19:42 | 39.12353 | -106.23261 | 24856 ft | 457 kts | 63° |
| 2026-04-23 19:43 | 39.13688 | -106.19602 | 24499 ft | 447 kts | 63° |
| 2026-04-23 19:43 | 39.14983 | -106.16036 | 24235 ft | 436 kts | 64° |
| 2026-04-23 19:43 | 39.16252 | -106.12530 | 23911 ft | 432 kts | 64° |
| 2026-04-23 19:43 | 39.17517 | -106.09024 | 23567 ft | 428 kts | 64° |
| 2026-04-23 19:44 | 39.18752 | -106.05589 | 23224 ft | 424 kts | 64° |
| 2026-04-23 19:44 | 39.19978 | -106.02171 | 22891 ft | 420 kts | 64° |
| 2026-04-23 19:44 | 39.21187 | -105.98796 | 22545 ft | 416 kts | 64° |
| 2026-04-23 19:44 | 39.22391 | -105.95431 | 22174 ft | 413 kts | 64° |
| 2026-04-23 19:45 | 39.23589 | -105.92083 | 21795 ft | 410 kts | 64° |
| 2026-04-23 19:45 | 39.24789 | -105.88743 | 21411 ft | 408 kts | 64° |
| 2026-04-23 19:45 | 39.25973 | -105.85469 | 21044 ft | 404 kts | 64° |
| 2026-04-23 19:45 | 39.27164 | -105.82188 | 20706 ft | 397 kts | 64° |
| 2026-04-23 19:46 | 39.28294 | -105.79029 | 20407 ft | 390 kts | 64° |
| 2026-04-23 19:46 | 39.29433 | -105.75858 | 19994 ft | 385 kts | 64° |
| 2026-04-23 19:46 | 39.30543 | -105.72765 | 19581 ft | 381 kts | 65° |
| 2026-04-23 19:46 | 39.31657 | -105.69657 | 19092 ft | 377 kts | 64° |
| 2026-04-23 19:47 | 39.32745 | -105.66616 | 18958 ft | 378 kts | 64° |
| 2026-04-23 19:47 | 39.33868 | -105.63536 | 18656 ft | 376 kts | 64° |
| 2026-04-23 19:47 | 39.34968 | -105.60529 | 18334 ft | 370 kts | 63° |
| 2026-04-23 19:47 | 39.36055 | -105.57562 | 17973 ft | 363 kts | 63° |
| 2026-04-23 19:48 | 39.37124 | -105.54637 | 17678 ft | 355 kts | 63° |
| 2026-04-23 19:48 | 39.38160 | -105.51798 | 17394 ft | 348 kts | 63° |
| 2026-04-23 19:48 | 39.39183 | -105.48983 | 17098 ft | 344 kts | 63° |
| 2026-04-23 19:48 | 39.40192 | -105.46199 | 16852 ft | 342 kts | 62° |
| 2026-04-23 19:49 | 39.41146 | -105.43367 | 16781 ft | 345 kts | 70° |
| 2026-04-23 19:49 | 39.41676 | -105.40362 | 16654 ft | 348 kts | 82° |
| 2026-04-23 19:49 | 39.41784 | -105.37242 | 16336 ft | 346 kts | 87° |
| 2026-04-23 19:49 | 39.41783 | -105.34130 | 15958 ft | 346 kts | 89° |
| 2026-04-23 19:50 | 39.41767 | -105.31033 | 15619 ft | 346 kts | 88° |
| 2026-04-23 19:50 | 39.41777 | -105.27913 | 15333 ft | 345 kts | 88° |
| 2026-04-23 19:50 | 39.41779 | -105.24828 | 15029 ft | 346 kts | 89° |
| 2026-04-23 19:50 | 39.41782 | -105.21761 | 14830 ft | 344 kts | 88° |
| 2026-04-23 19:51 | 39.41791 | -105.18700 | 14618 ft | 340 kts | 88° |
| 2026-04-23 19:51 | 39.41808 | -105.15667 | 14450 ft | 335 kts | 89° |
| 2026-04-23 19:51 | 39.41824 | -105.12698 | 14256 ft | 329 kts | 89° |
| 2026-04-23 19:51 | 39.41856 | -105.09744 | 13983 ft | 325 kts | 90° |
| 2026-04-23 19:52 | 39.41854 | -105.06861 | 13653 ft | 321 kts | 90° |
| 2026-04-23 19:52 | 39.41849 | -105.03992 | 13375 ft | 316 kts | 90° |
| 2026-04-23 19:52 | 39.41853 | -105.01207 | 13119 ft | 311 kts | 89° |
| 2026-04-23 19:52 | 39.41863 | -104.98416 | 12874 ft | 305 kts | 89° |
| 2026-04-23 19:53 | 39.41876 | -104.95694 | 12642 ft | 299 kts | 88° |
| 2026-04-23 19:53 | 39.41989 | -104.93071 | 12581 ft | 286 kts | 83° |
| 2026-04-23 19:53 | 39.42200 | -104.90562 | 12332 ft | 282 kts | 82° |
| 2026-04-23 19:53 | 39.42427 | -104.88075 | 12058 ft | 278 kts | 82° |
| 2026-04-23 19:54 | 39.42650 | -104.85596 | 11828 ft | 274 kts | 82° |
| 2026-04-23 19:54 | 39.42863 | -104.83163 | 11528 ft | 274 kts | 81° |
| 2026-04-23 19:54 | 39.43079 | -104.80740 | 11269 ft | 271 kts | 80° |
| 2026-04-23 19:54 | 39.43306 | -104.78329 | 11031 ft | 266 kts | 76° |
| 2026-04-23 19:55 | 39.44051 | -104.76211 | 10958 ft | 254 kts | 41° |
| 2026-04-23 19:55 | 39.45497 | -104.75051 | 10703 ft | 245 kts | 15° |
| 2026-04-23 19:55 | 39.47114 | -104.74348 | 10478 ft | 247 kts | 15° |
| 2026-04-23 19:55 | 39.48747 | -104.73618 | 10259 ft | 246 kts | 16° |
| 2026-04-23 19:56 | 39.50358 | -104.72869 | 10067 ft | 244 kts | 15° |
| 2026-04-23 19:56 | 39.51930 | -104.72140 | 9850 ft | 242 kts | 16° |
| 2026-04-23 19:56 | 39.53501 | -104.71396 | 9650 ft | 241 kts | 16° |
| 2026-04-23 19:56 | 39.55064 | -104.70647 | 9454 ft | 241 kts | 16° |
| 2026-04-23 19:57 | 39.56633 | -104.69892 | 9215 ft | 238 kts | 17° |
| 2026-04-23 19:57 | 39.58201 | -104.69142 | 9046 ft | 238 kts | 17° |
| 2026-04-23 19:57 | 39.59763 | -104.68377 | 9019 ft | 238 kts | 16° |
| 2026-04-23 19:57 | 39.61323 | -104.67622 | 9024 ft | 239 kts | 16° |
| 2026-04-23 19:58 | 39.62884 | -104.66866 | 9029 ft | 241 kts | 15° |
| 2026-04-23 19:58 | 39.64498 | -104.66306 | 9028 ft | 237 kts | 2° |
| 2026-04-23 19:58 | 39.66116 | -104.66185 | 9045 ft | 230 kts | 355° |
| 2026-04-23 19:58 | 39.67641 | -104.66187 | 9013 ft | 206 kts | 353° |
| 2026-04-23 19:59 | 39.69067 | -104.66200 | 8469 ft | 210 kts | 352° |
| 2026-04-23 19:59 | 39.70544 | -104.66228 | 7832 ft | 216 kts | 353° |
| 2026-04-23 19:59 | 39.72018 | -104.66166 | 7465 ft | 208 kts | 357° |
| 2026-04-23 19:59 | 39.73421 | -104.66075 | 7207 ft | 194 kts | 356° |
| 2026-04-23 20:00 | 39.74712 | -104.66048 | 6924 ft | 179 kts | 352° |
| 2026-04-23 20:00 | 39.75909 | -104.66107 | 6665 ft | 164 kts | 351° |
| 2026-04-23 20:00 | 39.77004 | -104.66104 | 6374 ft | 155 kts | 354° |
| 2026-04-23 20:00 | 39.78051 | -104.66114 | 6141 ft | 147 kts | 354° |
| 2026-04-23 20:01 | 39.79086 | -104.66079 | 5984 ft | 149 kts | 354° |
| 2026-04-23 20:01 | 39.80123 | -104.66090 | 5850 ft | 148 kts | 355° |
| 2026-04-23 20:01 | 39.81146 | -104.66061 | 5680 ft | 147 kts | 356° |
| 2026-04-23 20:01 | 39.82178 | -104.66057 | 5496 ft | 147 kts | 356° |
| 2026-04-23 20:02 | 39.83198 | -104.66045 | 5340 ft | 141 kts | 355° |
| 2026-04-23 20:02 | 39.84024 | -104.66045 | 5334 ft | 92 kts | 356° |
| 2026-04-23 20:02 | 39.84489 | -104.66045 | 5334 ft | 48 kts | 354° |
| 2026-04-23 20:02 | 39.84777 | -104.66087 | 5333 ft | 29 kts | 348° |
| 2026-04-23 20:03 | 39.84956 | -104.66199 | 5333 ft | 28 kts | 333° |
| 2026-04-23 20:03 | 39.85145 | -104.66242 | 5333 ft | 28 kts | 0° |
| 2026-04-23 20:03 | 39.85341 | -104.66241 | 5333 ft | 28 kts | 1° |
| 2026-04-23 20:03 | 39.85536 | -104.66242 | 5333 ft | 28 kts | 359° |
| 2026-04-23 20:04 | 39.85669 | -104.66269 | 5333 ft | 12 kts | 297° |
| 2026-04-23 20:04 | 39.85679 | -104.66384 | 5333 ft | 13 kts | 271° |
| 2026-04-23 20:04 | 39.85676 | -104.66505 | 5333 ft | 12 kts | 253° |
| 2026-04-23 20:04 | 39.85659 | -104.66618 | 5333 ft | 14 kts | 267° |
| 2026-04-23 20:05 | 39.85660 | -104.66761 | 5333 ft | 17 kts | 276° |
| 2026-04-23 20:05 | 39.85718 | -104.66881 | 5333 ft | 15 kts | 291° |
| 2026-04-23 20:05 | 39.85729 | -104.67035 | 5333 ft | 19 kts | 270° |
| 2026-04-23 20:05 | 39.85731 | -104.67218 | 5333 ft | 20 kts | 271° |
| 2026-04-23 20:06 | 39.85747 | -104.67272 | 5333 ft | 5 kts | 329° |
| 2026-04-23 20:06 | 39.85782 | -104.67283 | 5333 ft | 5 kts | 356° |
| 2026-04-23 20:06 | 39.85802 | -104.67283 | 5333 ft | 0 kts | 1° |
| 2026-04-23 20:06 | 39.85804 | -104.67283 | 5333 ft | 0 kts | 1° |